Time;durP1;ratioP1;P1;durP2;ratioP2;P2;SDS_P1;SDS_P2;PMS_P1;PMS_P2;Temp;Humidity;BMP_temperature;BMP_pressure;BME280_temperature;BME280_humidity;BME280_pressure;Samples;Min_cycle;Max_cycle;Signal;HPM_P1;HPM_P2
2021/01/12 00:01:44;;;;;;;6.25;3.22;;;-2.60;66.70;;;;;;5036501;28;20353;-68
2021/01/12 00:04:12;;;;;;;5.35;3.20;;;-2.60;67.20;;;;;;5036383;28;20064;-68
2021/01/12 00:06:38;;;;;;;6.07;2.95;;;-2.70;67.60;;;;;;5036761;28;20113;-68
2021/01/12 00:09:04;;;;;;;4.28;3.10;;;-2.70;66.00;;;;;;5036444;28;20048;-68
2021/01/12 00:11:30;;;;;;;4.63;2.90;;;-2.50;64.80;;;;;;5036635;28;20125;-68
2021/01/12 00:13:56;;;;;;;6.63;3.00;;;-2.40;65.20;;;;;;5036370;28;20414;-68
2021/01/12 00:16:22;;;;;;;5.00;3.05;;;-2.40;64.50;;;;;;5036405;28;20021;-68
2021/01/12 00:18:48;;;;;;;4.60;3.08;;;-2.20;63.50;;;;;;5036249;28;20022;-68
2021/01/12 00:21:24;;;;;;;5.78;2.92;;;-2.10;63.30;;;;;;5036314;28;20029;-68
2021/01/12 00:23:50;;;;;;;;;;;-2.10;63.90;;;;;;5036782;28;20044;-68
2021/01/12 00:26:15;;;;;;;4.93;3.10;;;-2.20;63.80;;;;;;5036265;28;20297;-68
2021/01/12 00:28:41;;;;;;;5.03;2.70;;;-2.30;64.30;;;;;;5036171;28;20021;-68
2021/01/12 00:31:07;;;;;;;4.90;3.20;;;-2.20;63.70;;;;;;5036250;28;20037;-68
2021/01/12 00:33:32;;;;;;;5.20;3.17;;;-2.10;63.00;;;;;;5036286;28;20021;-68
2021/01/12 00:36:08;;;;;;;4.82;2.90;;;-2.00;62.80;;;;;;5036138;28;20061;-68
2021/01/12 00:38:34;;;;;;;4.20;2.80;;;-2.00;62.10;;;;;;5036445;28;20430;-68
2021/01/12 00:41:08;;;;;;;7.05;3.63;;;-1.80;61.80;;;;;;5036165;28;20018;-68
2021/01/12 00:43:33;;;;;;;4.35;2.75;;;-1.80;61.50;;;;;;5036158;28;20028;-68
2021/01/12 00:45:59;;;;;;;4.55;3.38;;;-1.80;62.00;;;;;;5036114;28;20021;-68
2021/01/12 00:48:24;;;;;;;5.65;3.60;;;-1.80;61.80;;;;;;5036021;28;20036;-68
2021/01/12 00:50:50;;;;;;;5.18;2.95;;;-1.90;61.90;;;;;;5035979;28;20101;-68
2021/01/12 00:53:16;;;;;;;5.97;3.42;;;-1.90;61.60;;;;;;5036521;28;20026;-68
2021/01/12 00:55:41;;;;;;;5.63;3.05;;;-1.90;62.30;;;;;;5036250;28;20029;-68
2021/01/12 00:58:07;;;;;;;4.05;2.80;;;-1.90;61.80;;;;;;5037277;28;20108;-68
2021/01/12 01:00:33;;;;;;;4.07;2.63;;;-1.80;61.00;;;;;;5039740;28;20018;-68
2021/01/12 01:02:58;;;;;;;5.07;3.30;;;-1.60;60.10;;;;;;5039591;28;20033;-68
2021/01/12 01:05:24;;;;;;;4.50;3.05;;;-1.50;60.30;;;;;;5039422;28;20151;-68
2021/01/12 01:07:50;;;;;;;4.05;2.80;;;-1.50;60.50;;;;;;5039420;28;20033;-68
2021/01/12 01:10:16;;;;;;;3.00;2.50;;;-1.60;60.50;;;;;;5039597;28;20029;-68
2021/01/12 01:12:41;;;;;;;3.53;2.45;;;-1.60;60.50;;;;;;5039459;28;20030;-68
2021/01/12 01:15:07;;;;;;;7.03;2.60;;;-1.70;60.40;;;;;;5038145;28;20432;-68
2021/01/12 01:17:36;;;;;;;5.25;2.55;;;-1.70;60.30;;;;;;5039137;28;20025;-68
2021/01/12 01:20:03;;;;;;;4.20;2.58;;;-1.70;60.80;;;;;;5039068;28;20017;-68
2021/01/12 01:22:29;;;;;;;3.90;2.60;;;-1.90;62.40;;;;;;5039176;28;20032;-68
2021/01/12 01:24:55;;;;;;;3.03;2.20;;;-2.00;62.10;;;;;;5039170;28;20033;-68
2021/01/12 01:27:20;;;;;;;3.72;2.72;;;-2.10;63.00;;;;;;5038907;28;20053;-68
2021/01/12 01:29:46;;;;;;;4.60;2.38;;;-2.20;62.60;;;;;;5038947;28;20079;-69
2021/01/12 01:32:12;;;;;;;5.80;3.10;;;-2.20;63.00;;;;;;5039120;28;20436;-69
2021/01/12 01:34:38;;;;;;;5.13;2.65;;;-2.20;62.40;;;;;;5038763;28;20302;-68
2021/01/12 01:37:04;;;;;;;5.60;2.63;;;-2.10;61.80;;;;;;5038838;28;20321;-68
2021/01/12 01:39:30;;;;;;;3.22;2.15;;;-2.00;60.70;;;;;;5038786;28;20385;-68
2021/01/12 01:42:00;;;;;;;3.95;2.50;;;-1.80;60.50;;;;;;5038978;28;20057;-68
2021/01/12 01:44:26;;;;;;;3.72;2.38;;;-1.70;60.10;;;;;;5038821;28;20041;-68
2021/01/12 01:46:52;;;;;;;4.20;2.25;;;-1.60;59.80;;;;;;5038661;28;20029;-68
2021/01/12 01:49:18;;;;;;;3.58;2.05;;;-1.50;58.90;;;;;;5038920;28;20021;-68
2021/01/12 01:51:48;;;;;;;4.80;1.98;;;-1.40;58.30;;;;;;5038522;28;20072;-68
2021/01/12 01:54:15;;;;;;;4.15;2.22;;;-1.30;58.30;;;;;;5038363;28;20468;-68
2021/01/12 01:56:41;;;;;;;4.20;2.25;;;-1.30;58.60;;;;;;5038766;28;20040;-68
2021/01/12 01:59:07;;;;;;;3.58;2.15;;;-1.30;58.40;;;;;;5038604;28;20029;-68
2021/01/12 02:01:35;;;;;;;3.65;2.45;;;-1.30;58.10;;;;;;5038287;28;20033;-68
2021/01/12 02:04:14;;;;;;;3.78;2.08;;;-1.40;57.90;;;;;;5038289;28;20033;-68
2021/01/12 02:06:42;;;;;;;3.50;2.20;;;-1.40;58.70;;;;;;5038582;28;20025;-68
2021/01/12 02:09:21;;;;;;;3.47;2.42;;;-1.40;58.90;;;;;;5037932;28;20018;-68
2021/01/12 02:11:55;;;;;;;3.75;2.30;;;-1.40;58.70;;;;;;5038056;28;20421;-68
2021/01/12 02:14:25;;;;;;;2.95;2.00;;;-1.30;58.50;;;;;;5038367;28;20356;-68
2021/01/12 02:16:54;;;;;;;2.33;1.52;;;-1.30;57.80;;;;;;5038130;28;20029;-68
2021/01/12 02:19:22;;;;;;;4.15;2.30;;;-1.30;58.30;;;;;;5038007;28;20020;-68
2021/01/12 02:21:51;;;;;;;3.42;2.08;;;-1.30;58.60;;;;;;5037937;28;20033;-68
2021/01/12 02:24:19;;;;;;;3.60;1.85;;;-1.30;58.20;;;;;;5037922;28;20032;-68
2021/01/12 02:26:44;;;;;;;3.70;2.15;;;-1.40;58.10;;;;;;5037839;28;20414;-68
2021/01/12 02:29:10;;;;;;;4.53;2.67;;;-1.40;58.30;;;;;;5037866;28;20053;-68
2021/01/12 02:31:36;;;;;;;3.13;1.95;;;-1.60;59.30;;;;;;5037808;28;20037;-68
2021/01/12 02:34:07;;;;;;;2.97;2.03;;;-1.70;58.80;;;;;;5037738;28;20021;-68
2021/01/12 02:36:34;;;;;;;9.27;2.88;;;-1.70;58.90;;;;;;5038103;28;20025;-68
2021/01/12 02:39:00;;;;;;;4.18;2.53;;;-1.70;58.80;;;;;;5036595;28;20090;-68
2021/01/12 02:41:33;;;;;;;3.33;2.10;;;-1.60;58.90;;;;;;5037825;28;20426;-68
2021/01/12 02:44:00;;;;;;;3.45;2.03;;;-1.50;58.70;;;;;;5037511;28;20045;-68
2021/01/12 02:46:25;;;;;;;3.92;2.42;;;-1.50;58.60;;;;;;5037498;28;20025;-68
2021/01/12 02:48:52;;;;;;;3.60;2.75;;;-1.40;57.80;;;;;;5037739;28;20033;-68
2021/01/12 02:51:17;;;;;;;2.65;2.00;;;-1.40;58.20;;;;;;5037661;28;20025;-68
2021/01/12 02:53:43;;;;;;;3.03;1.83;;;-1.40;58.00;;;;;;5037324;28;20291;-68
2021/01/12 02:56:09;;;;;;;2.85;2.10;;;-1.40;57.50;;;;;;5037181;28;20065;-68
2021/01/12 02:58:34;;;;;;;2.83;2.20;;;-1.40;57.50;;;;;;5037275;28;20028;-68
2021/01/12 03:01:00;;;;;;;3.33;2.00;;;-1.40;57.70;;;;;;5037572;28;20025;-68
2021/01/12 03:03:26;;;;;;;2.80;2.08;;;-1.40;56.80;;;;;;5037407;28;20021;-68
2021/01/12 03:05:52;;;;;;;4.03;2.00;;;-1.30;56.40;;;;;;5037459;28;20114;-68
2021/01/12 03:08:18;;;;;;;3.50;2.20;;;-1.20;55.90;;;;;;5037454;28;20018;-68
2021/01/12 03:10:44;;;;;;;2.60;1.80;;;-1.20;56.20;;;;;;5037045;28;20322;-68
2021/01/12 03:13:09;;;;;;;3.08;1.73;;;-1.20;55.70;;;;;;5037231;28;20028;-68
2021/01/12 03:15:37;;;;;;;4.20;1.98;;;-1.10;55.80;;;;;;5036958;28;20026;-68
2021/01/12 03:18:03;;;;;;;3.38;2.33;;;-1.10;55.80;;;;;;5035949;28;20021;-68
2021/01/12 03:20:28;;;;;;;3.92;2.05;;;-1.10;56.00;;;;;;5036295;28;20361;-68
2021/01/12 03:22:54;;;;;;;5.95;2.30;;;-1.10;56.30;;;;;;5036899;28;20028;-68
2021/01/12 03:25:20;;;;;;;2.92;1.77;;;-1.20;56.10;;;;;;5036570;28;20120;-69
2021/01/12 03:27:49;;;;;;;3.67;1.73;;;-1.10;55.20;;;;;;5037056;28;20040;-68
2021/01/12 03:30:16;;;;;;;3.00;2.00;;;-1.10;55.00;;;;;;5035763;28;20029;-69
2021/01/12 03:32:43;;;;;;;3.35;1.77;;;-1.10;55.40;;;;;;5036948;28;20025;-68
2021/01/12 03:35:10;;;;;;;4.40;1.55;;;-1.10;54.50;;;;;;5036828;28;20025;-68
2021/01/12 03:37:36;;;;;;;2.60;1.50;;;-1.00;54.50;;;;;;5036701;28;20421;-68
2021/01/12 03:40:04;;;;;;;3.53;2.05;;;-0.90;54.00;;;;;;5036683;28;20025;-68
2021/01/12 03:42:30;;;;;;;3.78;2.10;;;-0.90;54.10;;;;;;5036602;28;20440;-68
2021/01/12 03:44:56;;;;;;;4.32;2.25;;;-0.90;54.10;;;;;;5036848;28;20034;-68
2021/01/12 03:47:21;;;;;;;3.60;1.88;;;-1.00;55.20;;;;;;5036643;28;20418;-68
2021/01/12 03:49:47;;;;;;;3.20;1.73;;;-1.00;54.80;;;;;;5036631;28;20044;-68
2021/01/12 03:52:13;;;;;;;2.72;2.00;;;-1.10;55.10;;;;;;5036444;28;20433;-68
2021/01/12 03:54:38;;;;;;;2.70;1.80;;;-1.10;54.90;;;;;;5036641;28;20026;-68
2021/01/12 03:57:04;;;;;;;3.00;2.25;;;-1.00;54.80;;;;;;5036572;28;20030;-68
2021/01/12 03:59:30;;;;;;;3.10;1.90;;;-1.00;54.80;;;;;;5036793;28;20025;-68
2021/01/12 04:01:55;;;;;;;2.63;1.77;;;-1.00;54.50;;;;;;5036541;28;20087;-68
2021/01/12 04:04:22;;;;;;;2.55;1.70;;;-0.90;53.90;;;;;;5036416;28;20033;-68
2021/01/12 04:06:47;;;;;;;2.90;1.67;;;-0.90;53.80;;;;;;5036662;28;20026;-68
2021/01/12 04:09:13;;;;;;;3.35;1.83;;;-0.90;53.60;;;;;;5036612;28;20072;-68
2021/01/12 04:11:39;;;;;;;3.42;1.60;;;-0.80;53.50;;;;;;5036567;28;20448;-68
2021/01/12 04:14:06;;;;;;;2.35;1.58;;;-0.90;55.00;;;;;;5036630;28;20108;-68
2021/01/12 04:16:32;;;;;;;2.10;1.50;;;-1.00;54.60;;;;;;5036486;28;20067;-68
2021/01/12 04:18:58;;;;;;;3.00;1.70;;;-1.10;54.30;;;;;;5036608;28;20056;-68
2021/01/12 04:21:24;;;;;;;2.90;1.98;;;-1.10;54.30;;;;;;5036331;28;20057;-68
2021/01/12 04:23:50;;;;;;;2.50;1.52;;;-1.10;54.30;;;;;;5036255;28;20029;-68
2021/01/12 04:26:15;;;;;;;2.33;1.63;;;-1.10;53.50;;;;;;5036041;28;20045;-68
2021/01/12 04:28:41;;;;;;;1.60;1.08;;;-1.00;53.60;;;;;;5036508;28;20056;-68
2021/01/12 04:31:07;;;;;;;2.38;1.30;;;-1.00;53.70;;;;;;5036232;28;20155;-68
2021/01/12 04:33:32;;;;;;;2.65;1.40;;;-1.00;53.80;;;;;;5039758;28;20033;-68
2021/01/12 04:35:58;;;;;;;2.33;1.60;;;-1.10;53.80;;;;;;5040202;28;20394;-68
2021/01/12 04:38:24;;;;;;;1.90;1.20;;;-1.20;55.00;;;;;;5040213;28;20028;-68
2021/01/12 04:40:49;;;;;;;2.65;1.30;;;-1.30;54.20;;;;;;5038880;28;20320;-68
2021/01/12 04:43:15;;;;;;;2.85;1.30;;;-1.30;54.10;;;;;;5040114;28;20037;-68
2021/01/12 04:45:41;;;;;;;1.77;1.30;;;-1.30;53.50;;;;;;5039724;28;20034;-68
2021/01/12 04:48:07;;;;;;;2.53;1.50;;;-1.20;52.80;;;;;;5040016;28;20036;-68
2021/01/12 04:50:33;;;;;;;3.88;1.35;;;-1.10;53.20;;;;;;5039693;28;20082;-68
2021/01/12 04:52:59;;;;;;;2.80;1.52;;;-1.10;52.70;;;;;;5039832;28;20029;-69
2021/01/12 04:55:25;;;;;;;2.63;1.50;;;-1.10;52.90;;;;;;5039542;28;20129;-68
2021/01/12 04:57:52;;;;;;;2.58;1.15;;;-1.10;52.50;;;;;;5039621;28;20105;-68
2021/01/12 05:00:24;;;;;;;3.97;1.35;;;-1.10;52.80;;;;;;5039556;28;20322;-68
2021/01/12 05:03:06;;;;;;;3.80;1.40;;;-1.10;53.10;;;;;;5039802;28;20025;-68
2021/01/12 05:05:36;;;;;;;2.70;1.73;;;-1.20;53.80;;;;;;5039428;28;20121;-68
2021/01/12 05:08:17;;;;;;;2.50;1.23;;;-1.30;55.30;;;;;;5039468;28;20025;-68
2021/01/12 05:10:49;;;;;;;2.90;1.63;;;-1.50;55.60;;;;;;5039651;28;20025;-68
2021/01/12 05:13:17;;;;;;;3.63;1.70;;;-1.70;55.90;;;;;;5039490;28;20322;-68
2021/01/12 05:15:47;;;;;;;4.63;2.00;;;-1.80;56.60;;;;;;5039206;28;20057;-68
2021/01/12 05:18:17;;;;;;;3.97;1.65;;;-1.90;58.20;;;;;;5039482;28;20227;-68
2021/01/12 05:20:44;;;;;;;2.60;1.63;;;-2.00;58.50;;;;;;5039133;28;20032;-68
2021/01/12 05:23:14;;;;;;;2.95;1.80;;;-2.10;57.70;;;;;;5039103;28;20017;-68
2021/01/12 05:25:41;;;;;;;2.72;1.73;;;-2.10;57.60;;;;;;5039123;28;20125;-68
2021/01/12 05:28:08;;;;;;;1.80;1.23;;;-2.00;57.30;;;;;;5039176;28;20029;-68
2021/01/12 05:30:34;;;;;;;2.65;1.60;;;-1.90;56.80;;;;;;5037930;28;20414;-68
2021/01/12 05:33:00;;;;;;;3.28;1.35;;;-1.80;56.80;;;;;;5039099;28;20032;-68
2021/01/12 05:35:36;;;;;;;1.75;1.40;;;-1.80;56.50;;;;;;5038912;28;20041;-68
2021/01/12 05:38:09;;;;;;;2.37;1.10;;;-1.70;56.10;;;;;;5038886;28;20432;-68
2021/01/12 05:40:40;;;;;;;1.55;1.10;;;-1.70;55.80;;;;;;5038794;28;20410;-68
2021/01/12 05:43:13;;;;;;;2.92;1.73;;;-1.60;55.60;;;;;;5038569;28;20017;-68
2021/01/12 05:45:43;;;;;;;2.28;1.27;;;-1.70;56.30;;;;;;5038621;28;20028;-68
2021/01/12 05:48:10;;;;;;;2.20;1.17;;;-1.70;57.20;;;;;;5038934;28;20025;-68
2021/01/12 05:50:37;;;;;;;2.20;1.45;;;-1.80;56.20;;;;;;5038640;28;20029;-68
2021/01/12 05:53:08;;;;;;;3.28;1.52;;;-1.80;55.00;;;;;;5038472;28;20053;-68
2021/01/12 05:55:41;;;;;;;2.85;1.80;;;-1.80;56.20;;;;;;5038416;28;20082;-68
2021/01/12 05:58:29;;;;;;;2.90;1.48;;;-1.80;55.20;;;;;;5038440;28;20464;-68
2021/01/12 06:00:58;;;;;;;3.20;1.52;;;-1.90;55.90;;;;;;5038621;28;20026;-68
2021/01/12 06:03:27;;;;;;;4.70;2.40;;;-1.90;57.30;;;;;;5038779;28;20032;-68
2021/01/12 06:05:54;;;;;;;4.05;1.85;;;-2.00;57.10;;;;;;5038555;28;20056;-68
2021/01/12 06:08:20;;;;;;;1.95;1.33;;;-2.10;58.00;;;;;;5038318;28;20025;-68
2021/01/12 06:10:46;;;;;;;2.63;1.48;;;-2.20;58.80;;;;;;5038525;28;20029;-68
2021/01/12 06:13:14;;;;;;;2.20;1.38;;;-2.20;58.20;;;;;;5038119;28;20382;-68
2021/01/12 06:15:42;;;;;;;2.15;1.33;;;-2.20;57.50;;;;;;5038086;28;20044;-68
2021/01/12 06:18:20;;;;;;;2.47;1.63;;;-2.00;56.60;;;;;;5038064;28;20025;-68
2021/01/12 06:20:55;;;;;;;2.33;1.30;;;-1.80;55.70;;;;;;5038326;28;20049;-68
2021/01/12 06:23:31;;;;;;;2.63;1.40;;;-1.70;55.00;;;;;;5038105;28;20025;-68
2021/01/12 06:25:58;;;;;;;2.15;1.13;;;-1.70;55.10;;;;;;5037684;28;20365;-68
2021/01/12 06:28:24;;;;;;;2.65;1.40;;;-1.70;55.00;;;;;;5038003;28;20033;-68
2021/01/12 06:30:50;;;;;;;1.60;1.10;;;-1.70;55.30;;;;;;5037805;28;20033;-68
2021/01/12 06:33:16;;;;;;;2.58;1.50;;;-1.80;55.60;;;;;;5037948;28;20033;-69
2021/01/12 06:35:42;;;;;;;2.40;1.60;;;-1.90;57.40;;;;;;5037739;28;20021;-68
2021/01/12 06:38:18;;;;;;;2.60;1.60;;;-2.00;58.20;;;;;;5038009;28;20024;-69
2021/01/12 06:40:49;;;;;;;3.05;1.60;;;-2.10;57.60;;;;;;5036653;28;20022;-68
2021/01/12 06:43:17;;;;;;;3.17;1.77;;;-2.10;57.20;;;;;;5037914;28;20072;-68
2021/01/12 06:45:46;;;;;;;2.17;1.42;;;-2.00;57.60;;;;;;5037524;28;20021;-69
2021/01/12 06:48:14;;;;;;;4.55;1.92;;;-2.00;59.00;;;;;;5037778;28;20025;-69
2021/01/12 06:50:47;;;;;;;2.70;1.50;;;-2.10;59.60;;;;;;5037697;28;20049;-68
2021/01/12 06:53:14;;;;;;;3.30;1.98;;;-2.10;58.60;;;;;;5037390;28;20060;-69
2021/01/12 06:55:39;;;;;;;4.70;1.77;;;-2.10;59.20;;;;;;5036786;28;20037;-68
2021/01/12 06:58:11;;;;;;;2.53;1.70;;;-2.00;59.30;;;;;;5037297;28;20100;-68
2021/01/12 07:00:37;;;;;;;2.80;1.80;;;-2.00;60.10;;;;;;5037543;28;20075;-68
2021/01/12 07:03:05;;;;;;;4.88;1.70;;;-2.00;61.60;;;;;;5037513;28;20310;-68
2021/01/12 07:05:42;;;;;;;5.38;2.25;;;-2.00;61.10;;;;;;5037201;28;20034;-69
2021/01/12 07:08:09;;;;;;;3.53;2.20;;;-1.90;63.10;;;;;;5037153;28;20030;-68
2021/01/12 07:10:45;;;;;;;3.90;2.75;;;-1.80;62.60;;;;;;5037135;28;20036;-69
2021/01/12 07:13:11;;;;;;;4.22;2.47;;;-1.70;60.30;;;;;;5035950;28;20321;-68
2021/01/12 07:15:47;;;;;;;3.85;2.42;;;-1.60;59.20;;;;;;5036979;28;20025;-68
2021/01/12 07:18:14;;;;;;;4.45;3.35;;;-1.40;59.30;;;;;;5037315;28;20107;-68
2021/01/12 07:20:40;;;;;;;4.10;2.70;;;-1.30;58.40;;;;;;5036979;28;20156;-68
2021/01/12 07:23:11;;;;;;;3.50;2.40;;;-1.20;57.90;;;;;;5036925;28;20536;-69
2021/01/12 07:25:44;;;;;;;5.72;3.30;;;-1.00;58.30;;;;;;5036721;28;20128;-68
2021/01/12 07:28:16;;;;;;;7.50;2.55;;;-0.90;56.90;;;;;;5035853;28;20045;-69
2021/01/12 07:31:06;;;;;;;5.20;2.90;;;-0.80;57.40;;;;;;5036846;28;20429;-69
2021/01/12 07:33:34;;;;;;;4.22;2.40;;;-0.60;57.40;;;;;;5036451;28;20034;-69
2021/01/12 07:36:00;;;;;;;6.35;3.10;;;-0.40;56.60;;;;;;5036797;28;20022;-68
2021/01/12 07:38:28;;;;;;;5.22;3.08;;;-0.30;56.20;;;;;;5036783;28;20093;-69
2021/01/12 07:41:04;;;;;;;5.70;3.08;;;-0.20;55.90;;;;;;5036737;28;20317;-68
2021/01/12 07:43:31;;;;;;;5.35;2.85;;;-0.20;55.60;;;;;;5036795;28;20022;-69
2021/01/12 07:45:57;;;;;;;6.18;3.60;;;-0.10;56.00;;;;;;5036647;28;20429;-69
2021/01/12 07:48:23;;;;;;;5.03;3.20;;;-0.10;55.20;;;;;;5036581;28;20105;-68
2021/01/12 07:50:51;;;;;;;5.30;2.33;;;-0.10;55.50;;;;;;5036633;28;20060;-68
2021/01/12 07:53:17;;;;;;;3.22;1.92;;;0.00;54.90;;;;;;5036521;28;20079;-69
2021/01/12 07:55:47;;;;;;;3.65;2.30;;;0.00;56.10;;;;;;5036511;28;20034;-69
2021/01/12 07:58:22;;;;;;;3.75;2.38;;;0.00;54.60;;;;;;5036816;28;20326;-68
2021/01/12 08:00:48;;;;;;;5.18;2.55;;;0.10;53.70;;;;;;5036485;28;20028;-69
2021/01/12 08:03:14;;;;;;;4.07;2.30;;;0.20;54.80;;;;;;5036734;28;20364;-68
2021/01/12 08:05:41;;;;;;;4.13;2.58;;;0.40;54.60;;;;;;5036444;28;20025;-69
2021/01/12 08:08:08;;;;;;;6.75;4.05;;;0.50;54.60;;;;;;5039621;28;20022;-68
2021/01/12 08:10:36;;;;;;;4.47;2.58;;;0.40;55.20;;;;;;5040469;28;20088;-68
2021/01/12 08:13:07;;;;;;;4.68;2.80;;;0.40;55.10;;;;;;5040372;28;20028;-69
2021/01/12 08:15:34;;;;;;;4.47;3.10;;;0.40;54.20;;;;;;5040373;28;20032;-68
2021/01/12 08:18:00;;;;;;;4.95;3.33;;;0.40;55.00;;;;;;5040347;28;20017;-68
2021/01/12 08:20:26;;;;;;;6.35;4.22;;;0.40;54.90;;;;;;5040307;28;20051;-68
2021/01/12 08:22:56;;;;;;;13.05;8.13;;;0.40;55.20;;;;;;5040247;28;20064;-68
2021/01/12 08:25:25;;;;;;;11.05;6.38;;;0.40;56.00;;;;;;5040140;28;20034;-69
2021/01/12 08:27:59;;;;;;;11.13;6.38;;;0.40;54.90;;;;;;5040208;28;20333;-69
2021/01/12 08:30:30;;;;;;;9.00;5.72;;;0.30;55.40;;;;;;5040062;28;20034;-68
2021/01/12 08:33:20;;;;;;;11.50;5.38;;;0.20;55.60;;;;;;5040316;28;20044;-69
2021/01/12 08:36:30;;;;;;;7.57;4.55;;;0.10;56.10;;;;;;5040210;28;20330;-69
2021/01/12 08:38:58;;;;;;;10.25;5.32;;;0.00;57.60;;;;;;5038192;28;20036;-69
2021/01/12 08:41:25;;;;;;;6.50;4.50;;;0.00;59.10;;;;;;5051671;28;20460;-69
2021/01/12 08:43:56;;;;;;;7.85;4.70;;;0.00;58.60;;;;;;5039848;28;20037;-68
2021/01/12 08:46:27;;;;;;;6.63;5.00;;;0.00;58.50;;;;;;5040095;28;20073;-68
2021/01/12 08:48:53;;;;;;;8.85;5.20;;;-0.10;59.00;;;;;;5039853;28;20086;-68
2021/01/12 08:51:19;;;;;;;8.15;5.05;;;-0.20;58.60;;;;;;5039684;28;20434;-68
2021/01/12 08:53:55;;;;;;;5.80;3.80;;;-0.30;58.20;;;;;;5038539;28;20525;-68
2021/01/12 08:56:22;;;;;;;8.07;4.60;;;-0.30;58.60;;;;;;5040018;28;20014;-68
2021/01/12 08:58:47;;;;;;;6.97;4.32;;;-0.40;59.70;;;;;;5038507;28;20307;-69
2021/01/12 09:01:14;;;;;;;9.18;4.50;;;-0.40;59.40;;;;;;5039547;28;20037;-68
2021/01/12 09:03:42;;;;;;;9.77;5.03;;;-0.30;59.10;;;;;;5039570;28;20033;-68
2021/01/12 09:06:18;;;;;;;5.78;4.32;;;-0.40;59.10;;;;;;5039700;28;20025;-68
2021/01/12 09:08:44;;;;;;;;;;;-0.40;59.40;;;;;;5039881;28;20057;-68
2021/01/12 09:11:10;;;;;;;7.17;3.93;;;-0.30;59.60;;;;;;5039419;28;19905;-68
2021/01/12 09:13:36;;;;;;;8.13;4.95;;;-0.20;59.80;;;;;;5039448;28;20045;-68
2021/01/12 09:16:02;;;;;;;5.53;3.90;;;0.00;58.30;;;;;;5039219;28;20025;-68
2021/01/12 09:18:29;;;;;;;7.20;3.95;;;0.30;57.90;;;;;;5038157;28;20028;-68
2021/01/12 09:21:00;;;;;;;6.30;3.78;;;0.60;56.40;;;;;;5039197;28;20437;-69
2021/01/12 09:23:29;;;;;;;9.20;4.05;;;0.80;55.40;;;;;;5038098;28;20037;-68
2021/01/12 09:25:58;;;;;;;6.43;4.22;;;1.00;55.90;;;;;;5039020;28;20042;-69
2021/01/12 09:28:30;;;;;;;7.80;4.38;;;1.20;55.40;;;;;;5038998;28;20040;-68
2021/01/12 09:31:03;;;;;;;7.20;4.20;;;1.40;55.60;;;;;;5039204;28;20105;-69
2021/01/12 09:33:29;;;;;;;6.65;4.07;;;1.40;54.30;;;;;;5039347;28;20064;-69
2021/01/12 09:36:06;;;;;;;8.20;3.92;;;1.40;54.70;;;;;;5038928;28;20056;-69
2021/01/12 09:38:44;;;;;;;6.85;4.32;;;1.40;54.40;;;;;;5039122;28;20032;-69
2021/01/12 09:41:10;;;;;;;6.53;4.20;;;1.50;54.40;;;;;;5039094;28;20017;-69
2021/01/12 09:43:38;;;;;;;6.88;4.35;;;1.80;53.50;;;;;;5038744;28;20041;-69
2021/01/12 09:46:04;;;;;;;6.53;4.47;;;2.10;53.10;;;;;;5038905;28;20029;-68
2021/01/12 09:48:30;;;;;;;6.50;5.03;;;2.50;53.40;;;;;;5038687;28;20097;-68
2021/01/12 09:50:56;;;;;;;9.00;5.18;;;2.80;52.60;;;;;;5038676;28;20029;-69
2021/01/12 09:53:25;;;;;;;6.55;4.90;;;3.40;52.10;;;;;;5038461;28;20322;-69
2021/01/12 09:55:50;;;;;;;7.78;5.03;;;3.80;50.20;;;;;;5038800;28;20314;-69
2021/01/12 09:58:16;;;;;;;7.88;5.45;;;4.50;50.50;;;;;;5038503;28;20038;-69
2021/01/12 10:00:42;;;;;;;6.10;4.63;;;4.80;48.10;;;;;;5038432;28;20022;-69
2021/01/12 10:03:08;;;;;;;8.63;5.50;;;5.20;47.00;;;;;;5038402;28;20473;-69
2021/01/12 10:05:37;;;;;;;9.10;5.00;;;5.50;46.20;;;;;;5038369;28;20036;-69
2021/01/12 10:08:03;;;;;;;9.02;5.15;;;5.60;46.70;;;;;;5037462;28;20441;-69
2021/01/12 10:10:29;;;;;;;7.97;4.75;;;5.40;46.90;;;;;;5043137;28;20032;-69
2021/01/12 10:12:55;;;;;;;7.50;4.97;;;5.50;46.20;;;;;;5057163;28;20481;-69
2021/01/12 10:15:21;;;;;;;7.63;5.80;;;5.40;46.90;;;;;;5058075;28;20025;-66
2021/01/12 10:17:46;;;;;;;8.18;4.72;;;5.50;46.00;;;;;;5058076;28;20029;-69
2021/01/12 10:20:12;;;;;;;7.63;5.22;;;5.50;45.70;;;;;;5058067;28;20048;-68
2021/01/12 10:22:38;;;;;;;9.27;5.28;;;5.60;45.70;;;;;;5057988;28;20029;-69
2021/01/12 10:25:05;;;;;;;8.27;5.13;;;5.70;45.60;;;;;;5057979;28;20033;-69
2021/01/12 10:27:37;;;;;;;6.50;4.85;;;5.70;45.10;;;;;;5057707;28;20136;-67
2021/01/12 10:30:05;;;;;;;7.05;5.43;;;5.60;46.10;;;;;;5057619;28;20021;-66
2021/01/12 10:32:31;;;;;;;7.53;4.93;;;5.70;46.50;;;;;;5057712;28;20325;-67
2021/01/12 10:34:59;;;;;;;8.70;4.97;;;5.80;46.70;;;;;;5057602;28;20098;-69
2021/01/12 10:37:26;;;;;;;7.22;5.00;;;5.60;46.10;;;;;;5057712;28;20024;-69
2021/01/12 10:39:53;;;;;;;7.10;5.35;;;5.40;47.80;;;;;;5057730;28;20028;-69
2021/01/12 10:42:19;;;;;;;8.13;6.25;;;5.40;47.70;;;;;;5057569;28;20052;-69
2021/01/12 10:44:44;;;;;;;7.10;5.30;;;5.50;47.60;;;;;;5057647;28;20060;-69
2021/01/12 10:47:10;;;;;;;10.52;5.68;;;5.80;46.40;;;;;;5057541;28;20100;-69
2021/01/12 10:49:36;;;;;;;7.22;5.55;;;5.50;46.10;;;;;;5057437;28;20390;-69
2021/01/12 10:52:06;;;;;;;7.55;5.25;;;5.00;47.50;;;;;;5057287;28;20017;-69
2021/01/12 10:54:32;;;;;;;9.73;5.72;;;4.50;49.10;;;;;;5057396;28;20057;-68
2021/01/12 10:56:58;;;;;;;8.98;5.75;;;4.10;50.00;;;;;;5057570;28;20052;-69
2021/01/12 10:59:26;;;;;;;6.47;5.35;;;3.80;50.30;;;;;;5056211;28;20020;-68
2021/01/12 11:01:54;;;;;;;7.80;5.50;;;3.50;50.80;;;;;;5057231;28;20031;-68
2021/01/12 11:04:21;;;;;;;8.05;5.63;;;3.20;52.10;;;;;;5057261;28;20290;-69
2021/01/12 11:06:55;;;;;;;9.90;5.43;;;2.90;51.80;;;;;;5057117;28;20100;-69
2021/01/12 11:09:23;;;;;;;8.55;5.93;;;2.80;52.40;;;;;;5057106;28;20032;-68
2021/01/12 11:11:49;;;;;;;8.05;5.38;;;2.50;52.70;;;;;;5057264;28;20082;-68
2021/01/12 11:14:20;;;;;;;7.50;4.93;;;2.30;53.20;;;;;;5056939;28;20021;-69
2021/01/12 11:16:46;;;;;;;11.60;5.45;;;2.30;53.30;;;;;;5056992;28;20290;-69
2021/01/12 11:19:13;;;;;;;11.57;5.35;;;2.20;54.20;;;;;;5055898;28;20352;-68
2021/01/12 11:21:47;;;;;;;8.15;5.25;;;2.30;53.50;;;;;;5056871;28;20025;-68
2021/01/12 11:24:15;;;;;;;8.02;5.57;;;2.20;52.70;;;;;;5056849;28;20033;-68
2021/01/12 11:26:43;;;;;;;9.07;5.97;;;2.20;54.20;;;;;;5056945;28;20064;-69
2021/01/12 11:29:10;;;;;;;8.65;5.35;;;2.40;54.30;;;;;;5056795;28;20032;-68
2021/01/12 11:31:36;;;;;;;10.77;6.80;;;2.60;53.70;;;;;;5056761;28;20032;-69
2021/01/12 11:34:02;;;;;;;9.02;5.60;;;2.90;53.40;;;;;;5055533;28;20033;-69
2021/01/12 11:36:40;;;;;;;11.32;6.40;;;3.00;52.00;;;;;;5056624;28;20079;-69
2021/01/12 11:39:10;;;;;;;13.52;6.82;;;3.20;53.20;;;;;;5056706;28;20420;-69
2021/01/12 11:41:38;;;;;;;9.57;6.28;;;3.20;52.30;;;;;;5056168;28;20348;-68
2021/01/12 11:44:05;;;;;;;8.23;6.15;;;3.50;53.20;;;;;;5056569;28;20086;-69
2021/01/12 11:46:31;;;;;;;7.88;5.70;;;4.00;52.10;;;;;;5056717;28;20039;-69
2021/01/12 11:48:58;;;;;;;9.90;6.20;;;4.30;49.90;;;;;;5056528;28;20040;-69
2021/01/12 11:51:38;;;;;;;8.25;5.32;;;4.50;50.10;;;;;;5056535;28;20029;-69
2021/01/12 11:54:04;;;;;;;9.13;6.53;;;4.60;48.70;;;;;;5056555;28;20027;-69
2021/01/12 11:56:30;;;;;;;8.65;6.35;;;4.50;50.20;;;;;;5056949;28;20021;-69
2021/01/12 11:58:56;;;;;;;9.77;6.57;;;4.40;49.40;;;;;;5056772;28;20087;-69
2021/01/12 12:01:21;;;;;;;9.80;6.35;;;4.40;49.90;;;;;;5056742;28;20029;-69
2021/01/12 12:03:47;;;;;;;8.82;5.85;;;4.30;50.50;;;;;;5056479;28;20057;-69
2021/01/12 12:06:13;;;;;;;7.82;5.75;;;4.00;51.70;;;;;;5056403;28;20025;-69
2021/01/12 12:08:39;;;;;;;9.50;6.70;;;4.00;50.70;;;;;;5056638;28;20025;-69
2021/01/12 12:11:04;;;;;;;10.98;6.55;;;3.70;51.90;;;;;;5056507;28;20294;-69
2021/01/12 12:13:30;;;;;;;10.02;6.70;;;3.60;52.80;;;;;;5056250;28;20033;-68
2021/01/12 12:15:56;;;;;;;10.43;7.18;;;3.50;53.10;;;;;;5056455;28;20401;-69
2021/01/12 12:18:22;;;;;;;11.38;8.52;;;3.20;53.80;;;;;;5056532;28;20044;-69
2021/01/12 12:20:48;;;;;;;11.52;8.68;;;3.00;54.40;;;;;;5055200;28;20406;-69
2021/01/12 12:23:14;;;;;;;14.50;10.23;;;3.00;54.60;;;;;;5056542;28;20025;-68
2021/01/12 12:25:40;;;;;;;11.40;7.90;;;2.90;54.90;;;;;;5056257;28;20056;-69
2021/01/12 12:28:05;;;;;;;13.10;8.05;;;2.70;54.50;;;;;;5056404;28;20029;-68
2021/01/12 12:30:31;;;;;;;12.60;7.97;;;2.70;55.50;;;;;;5056191;28;20437;-69
2021/01/12 12:32:57;;;;;;;12.23;7.53;;;2.70;55.20;;;;;;5056098;28;20043;-69
2021/01/12 12:35:22;;;;;;;12.68;8.57;;;2.60;55.10;;;;;;5056120;28;20029;-68
2021/01/12 12:37:48;;;;;;;10.93;7.97;;;2.50;56.40;;;;;;5056130;28;20051;-68
2021/01/12 12:40:15;;;;;;;12.07;8.00;;;2.40;57.20;;;;;;5056293;28;20032;-68
2021/01/12 12:42:40;;;;;;;10.98;7.82;;;2.30;57.30;;;;;;5056078;28;20032;-69
2021/01/12 12:45:06;;;;;;;14.18;7.43;;;2.30;57.00;;;;;;5056288;28;20037;-69
2021/01/12 12:47:32;;;;;;;14.00;8.48;;;2.20;56.30;;;;;;5055973;28;20417;-68
2021/01/12 12:49:58;;;;;;;12.68;7.88;;;2.20;56.50;;;;;;5056205;28;20034;-69
2021/01/12 12:52:24;;;;;;;12.70;7.55;;;2.10;56.30;;;;;;5055059;28;20029;-69
2021/01/12 12:54:50;;;;;;;14.82;8.35;;;2.00;57.10;;;;;;5059837;28;20029;-68